createdAt,value
2023-08-19T00:01:10.287Z,13.60
2023-08-19T00:03:38.850Z,15.50
2023-08-19T00:06:07.759Z,11.50
2023-08-19T00:08:36.185Z,11.50
2023-08-19T00:11:04.547Z,10.10
2023-08-19T00:13:32.184Z,11.30
2023-08-19T00:15:59.820Z,10.10
2023-08-19T00:18:28.530Z,10.00
2023-08-19T00:20:56.449Z,11.20
2023-08-19T00:23:25.065Z,9.40
2023-08-19T00:25:52.689Z,11.30
2023-08-19T00:28:20.219Z,11.80
2023-08-19T00:30:47.702Z,10.20
2023-08-19T00:33:15.266Z,12.90
2023-08-19T00:35:43.676Z,13.10
2023-08-19T00:38:11.315Z,9.30
2023-08-19T00:40:38.929Z,11.30
2023-08-19T00:43:06.901Z,12.00
2023-08-19T00:45:34.388Z,9.20
2023-08-19T00:48:04.279Z,10.40
2023-08-19T00:50:31.935Z,12.60
2023-08-19T00:52:59.501Z,13.70
2023-08-19T00:55:26.841Z,12.80
2023-08-19T00:57:54.193Z,12.10
2023-08-19T01:00:21.595Z,10.40
2023-08-19T01:02:49.230Z,12.00
2023-08-19T01:05:16.833Z,10.30
2023-08-19T01:07:50.319Z,11.20
2023-08-19T01:10:33.206Z,11.40
2023-08-19T01:13:12.278Z,12.20
2023-08-19T01:28:52.890Z,10.60
2023-08-19T01:31:20.485Z,14.00
2023-08-19T01:33:48.442Z,12.00
2023-08-19T01:36:33.773Z,15.00
2023-08-19T01:39:06.379Z,14.30
2023-08-19T01:41:33.932Z,11.10
2023-08-19T01:44:01.595Z,14.10
2023-08-19T01:46:28.988Z,13.10
2023-08-19T01:48:56.462Z,11.80
2023-08-19T01:51:24.175Z,12.30
2023-08-19T01:53:51.632Z,13.70
2023-08-19T01:56:19.301Z,13.60
2023-08-19T01:58:47.148Z,10.70
2023-08-19T02:01:14.684Z,15.00
2023-08-19T02:03:42.180Z,13.00
2023-08-19T02:06:09.746Z,13.90
2023-08-19T02:08:37.121Z,14.10
2023-08-19T02:11:04.659Z,12.20
2023-08-19T02:13:32.422Z,14.40
2023-08-19T02:16:00.264Z,12.90
2023-08-19T02:18:29.538Z,14.40
2023-08-19T02:20:57.148Z,10.80
2023-08-19T02:23:24.708Z,12.00
2023-08-19T02:25:53.500Z,13.70
2023-08-19T02:28:21.103Z,13.30
2023-08-19T02:30:48.487Z,12.40
2023-08-19T02:33:15.984Z,12.10
2023-08-19T02:35:50.827Z,11.50
2023-08-19T02:38:18.364Z,12.10
2023-08-19T02:40:52.376Z,13.00
2023-08-19T02:43:19.977Z,18.80
2023-08-19T02:45:47.525Z,13.00
2023-08-19T02:48:16.294Z,14.20
2023-08-19T02:50:44.101Z,11.10
2023-08-19T02:53:11.612Z,17.00
2023-08-19T02:55:42.713Z,13.10
2023-08-19T02:58:10.863Z,10.40
2023-08-19T03:00:38.454Z,13.60
2023-08-19T03:03:07.147Z,13.70
2023-08-19T03:05:40.619Z,11.90
2023-08-19T03:08:09.360Z,13.60
2023-08-19T03:10:37.780Z,12.60
2023-08-19T03:13:05.863Z,14.00
2023-08-19T03:15:34.119Z,15.10
2023-08-19T03:18:01.682Z,13.90
2023-08-19T03:20:29.930Z,13.00
2023-08-19T03:22:57.492Z,13.60
2023-08-19T03:25:24.969Z,12.80
2023-08-19T03:27:52.526Z,12.50
2023-08-19T03:30:20.604Z,16.90
2023-08-19T03:32:48.057Z,11.70
2023-08-19T03:35:15.646Z,13.50
2023-08-19T03:37:43.258Z,13.60
2023-08-19T03:40:11.334Z,12.10
2023-08-19T03:42:38.890Z,14.20
2023-08-19T03:45:07.050Z,16.50
2023-08-19T03:47:34.982Z,15.50
2023-08-19T03:50:02.924Z,13.40
2023-08-19T03:52:30.461Z,13.10
2023-08-19T03:54:57.849Z,11.30
2023-08-19T03:57:25.590Z,13.10
2023-08-19T03:59:53.355Z,13.30
2023-08-19T04:02:20.907Z,15.00
2023-08-19T04:05:10.915Z,15.20
2023-08-19T04:07:39.079Z,12.80
2023-08-19T04:10:07.352Z,14.10
2023-08-19T04:12:35.036Z,15.30
2023-08-19T04:15:02.446Z,11.80
2023-08-19T04:17:30.648Z,15.40
2023-08-19T04:19:58.717Z,13.20
2023-08-19T04:22:26.282Z,12.10
2023-08-19T04:24:56.602Z,13.50
2023-08-19T04:27:25.179Z,15.60
2023-08-19T04:29:53.353Z,18.80
2023-08-19T04:32:20.929Z,15.20
2023-08-19T04:34:48.793Z,13.20
2023-08-19T04:37:16.236Z,14.20
2023-08-19T04:39:43.932Z,12.90
2023-08-19T04:42:21.907Z,12.80
2023-08-19T04:44:49.369Z,15.00
2023-08-19T04:47:18.150Z,17.80
2023-08-19T04:49:45.639Z,15.10
2023-08-19T04:52:13.000Z,15.60
2023-08-19T04:54:40.530Z,13.70
2023-08-19T04:57:08.406Z,13.80
2023-08-19T04:59:35.963Z,14.70
2023-08-19T05:02:03.921Z,15.60
2023-08-19T05:04:31.514Z,17.50
2023-08-19T05:06:59.121Z,14.70
2023-08-19T05:09:26.710Z,16.10
2023-08-19T05:11:54.311Z,16.10
2023-08-19T05:14:21.919Z,15.00
2023-08-19T05:16:49.802Z,14.50
2023-08-19T05:19:18.904Z,15.00
2023-08-19T05:21:49.747Z,13.50
2023-08-19T05:24:17.906Z,16.20
2023-08-19T05:26:46.428Z,14.40
2023-08-19T05:29:14.316Z,15.60
2023-08-19T05:31:43.502Z,15.50
2023-08-19T05:34:11.630Z,13.20
2023-08-19T05:36:39.115Z,12.80
2023-08-19T05:39:06.556Z,14.60
2023-08-19T05:41:34.306Z,12.00
2023-08-19T05:44:01.920Z,13.30
2023-08-19T05:46:29.443Z,13.90
2023-08-19T05:48:57.111Z,12.30
2023-08-19T05:51:24.548Z,12.70
2023-08-19T05:53:51.945Z,13.00
2023-08-19T05:56:19.465Z,13.80
2023-08-19T05:58:47.476Z,12.70
2023-08-19T06:01:14.994Z,14.20
2023-08-19T06:03:42.439Z,13.00
2023-08-19T06:06:09.836Z,16.80
2023-08-19T06:08:37.316Z,13.60
2023-08-19T06:11:08.629Z,13.30
2023-08-19T06:13:36.375Z,13.30
2023-08-19T06:16:07.755Z,14.00
2023-08-19T06:18:35.458Z,15.20
2023-08-19T06:21:04.111Z,12.50
2023-08-19T06:23:31.934Z,13.20
2023-08-19T06:25:59.606Z,13.50
2023-08-19T06:28:27.272Z,12.40
2023-08-19T06:30:55.023Z,13.10
2023-08-19T06:33:22.969Z,13.80
2023-08-19T06:35:51.020Z,16.20
2023-08-19T06:38:25.160Z,13.20
2023-08-19T06:41:11.589Z,12.20
2023-08-19T06:43:39.606Z,12.80
2023-08-19T06:46:08.090Z,13.00
2023-08-19T06:48:35.954Z,13.50
2023-08-19T06:51:04.638Z,13.70
2023-08-19T06:53:32.732Z,14.60
2023-08-19T06:56:45.225Z,16.00
2023-08-19T06:59:16.029Z,14.00
2023-08-19T07:01:47.575Z,14.60
2023-08-19T07:04:15.849Z,12.70
2023-08-19T07:06:43.421Z,13.30
2023-08-19T07:09:12.728Z,19.40
2023-08-19T07:11:40.410Z,14.30
2023-08-19T07:14:08.444Z,12.80
2023-08-19T07:16:36.036Z,14.00
2023-08-19T07:19:04.935Z,14.80
2023-08-19T07:21:32.867Z,16.80
2023-08-19T07:24:00.554Z,12.40
2023-08-19T07:26:28.190Z,12.70
2023-08-19T07:28:55.965Z,14.30
2023-08-19T07:31:23.933Z,15.30
2023-08-19T07:33:51.487Z,11.70
2023-08-19T07:36:18.940Z,14.80
2023-08-19T07:38:49.373Z,14.80
2023-08-19T07:41:16.828Z,12.70
2023-08-19T07:43:44.197Z,16.40
2023-08-19T07:46:16.691Z,14.40
2023-08-19T07:48:47.612Z,13.10
2023-08-19T07:51:15.268Z,13.60
2023-08-19T07:53:42.936Z,14.30
2023-08-19T07:56:10.698Z,15.10
2023-08-19T07:59:33.140Z,14.20
2023-08-19T08:02:01.011Z,12.60
2023-08-19T08:05:00.370Z,13.20
2023-08-19T08:07:53.578Z,14.30
2023-08-19T08:10:25.556Z,13.20
2023-08-19T08:12:56.233Z,13.40
2023-08-19T08:15:24.049Z,12.50
2023-08-19T08:17:51.614Z,14.80
2023-08-19T08:20:19.260Z,13.10
2023-08-19T08:22:46.820Z,13.40
2023-08-19T08:25:14.386Z,13.30
2023-08-19T08:27:42.002Z,13.00
2023-08-19T08:30:09.992Z,13.90
2023-08-19T08:32:37.625Z,11.40
2023-08-19T08:35:05.851Z,14.60
2023-08-19T08:38:11.099Z,12.30
2023-08-19T08:40:47.774Z,13.00
2023-08-19T08:43:15.274Z,14.20
2023-08-19T08:46:26.813Z,24.50
2023-08-19T08:48:54.204Z,11.20
2023-08-19T08:51:22.047Z,12.60
2023-08-19T08:53:49.958Z,13.80
2023-08-19T08:56:17.568Z,13.60
2023-08-19T08:58:45.066Z,11.40
2023-08-19T09:01:12.517Z,12.30
2023-08-19T09:03:40.982Z,11.90
2023-08-19T09:06:17.343Z,15.00
2023-08-19T09:08:49.583Z,12.30
2023-08-19T09:11:22.202Z,11.90
2023-08-19T09:13:53.325Z,18.60
2023-08-19T09:16:20.699Z,13.20
2023-08-19T09:18:48.649Z,11.80
2023-08-19T09:21:16.148Z,13.60
2023-08-19T09:23:44.014Z,13.90
2023-08-19T09:26:14.346Z,10.60
2023-08-19T09:28:41.861Z,15.90
2023-08-19T09:31:21.620Z,12.50
2023-08-19T09:33:49.417Z,12.80
2023-08-19T09:36:17.081Z,10.10
2023-08-19T09:38:44.639Z,11.80
2023-08-19T09:41:12.684Z,12.30
2023-08-19T09:43:41.159Z,11.30
2023-08-19T09:46:09.655Z,12.90
2023-08-19T09:48:37.322Z,10.80
2023-08-19T09:51:05.053Z,10.60
2023-08-19T09:53:32.716Z,10.80
2023-08-19T09:56:00.401Z,13.00
2023-08-19T09:58:28.001Z,12.80
2023-08-19T10:00:55.493Z,10.90
2023-08-19T10:03:23.150Z,11.30
2023-08-19T10:05:53.572Z,12.50
2023-08-19T10:08:23.283Z,10.60
2023-08-19T10:10:51.130Z,9.80
2023-08-19T10:13:18.933Z,9.80
2023-08-19T10:15:47.770Z,8.80
2023-08-19T10:18:18.231Z,9.80
2023-08-19T10:20:51.691Z,9.20
2023-08-19T10:23:19.253Z,10.60
2023-08-19T10:25:46.748Z,10.00
2023-08-19T10:28:15.196Z,10.60
2023-08-19T10:30:43.147Z,10.50
2023-08-19T10:33:33.649Z,11.60
2023-08-19T10:36:05.694Z,8.00
2023-08-19T10:38:52.502Z,11.00
2023-08-19T10:41:23.329Z,10.10
2023-08-19T10:44:13.813Z,8.10
2023-08-19T10:46:48.757Z,9.70
2023-08-19T10:49:19.044Z,9.00
2023-08-19T10:52:02.069Z,12.10
2023-08-19T10:54:43.700Z,10.80
2023-08-19T10:57:24.535Z,9.20
2023-08-19T11:00:00.046Z,9.00
2023-08-19T11:02:29.605Z,9.70
2023-08-19T11:04:58.700Z,7.60
2023-08-19T11:07:26.709Z,10.80
2023-08-19T11:09:57.884Z,8.80
2023-08-19T11:12:27.859Z,10.00
2023-08-19T11:14:58.592Z,7.90
2023-08-19T11:17:32.631Z,7.40
2023-08-19T11:20:09.117Z,9.20
2023-08-19T11:22:44.025Z,10.20
2023-08-19T11:27:38.820Z,6.20
2023-08-19T11:30:09.119Z,12.30
2023-08-19T11:32:36.956Z,7.30
2023-08-19T11:35:05.390Z,8.30
2023-08-19T11:37:32.830Z,10.00
2023-08-19T11:40:04.342Z,9.00
2023-08-19T11:42:36.488Z,10.30
2023-08-19T11:45:08.855Z,7.90
2023-08-19T11:47:36.616Z,9.40
2023-08-19T11:50:06.099Z,8.80
2023-08-19T11:52:36.455Z,9.80
2023-08-19T11:55:05.066Z,7.60
2023-08-19T11:57:36.695Z,8.80
2023-08-19T12:00:08.231Z,9.30
2023-08-19T12:02:41.760Z,10.00
2023-08-19T12:05:09.499Z,11.00
2023-08-19T12:07:38.642Z,11.80
2023-08-19T12:10:06.969Z,8.20
2023-08-19T12:12:34.654Z,10.30
2023-08-19T12:15:02.405Z,8.60
2023-08-19T12:17:29.914Z,12.80
2023-08-19T12:19:57.350Z,11.20
2023-08-19T12:22:24.834Z,9.70
2023-08-19T12:24:52.428Z,9.80
2023-08-19T12:27:19.889Z,8.80
2023-08-19T12:29:49.981Z,7.80
2023-08-19T12:32:42.991Z,11.40
2023-08-19T12:35:10.928Z,8.00
2023-08-19T12:37:38.505Z,9.90
2023-08-19T12:40:07.254Z,12.70
2023-08-19T12:42:46.698Z,9.00
2023-08-19T12:45:16.222Z,6.80
2023-08-19T12:47:43.682Z,10.80
2023-08-19T12:50:49.844Z,13.50
2023-08-19T12:53:24.162Z,7.40
2023-08-19T12:55:51.723Z,8.70
2023-08-19T12:58:19.538Z,8.30
2023-08-19T13:04:30.243Z,8.20
2023-08-19T13:06:57.944Z,9.40
2023-08-19T13:09:26.371Z,10.10
2023-08-19T13:11:53.903Z,10.20
2023-08-19T13:14:21.505Z,7.10
2023-08-19T13:16:49.170Z,8.70
2023-08-19T13:19:16.873Z,10.00
2023-08-19T13:21:44.432Z,8.00
2023-08-19T13:24:11.807Z,8.30
2023-08-19T13:26:39.349Z,6.60
2023-08-19T13:29:06.913Z,7.70
2023-08-19T13:31:34.479Z,8.70
2023-08-19T13:36:15.560Z,9.40
2023-08-19T13:39:31.715Z,8.00
2023-08-19T13:42:24.265Z,6.60
2023-08-19T13:48:14.937Z,6.60
2023-08-19T13:50:44.810Z,8.50
2023-08-19T13:53:12.250Z,8.10
2023-08-19T13:55:40.478Z,7.50
2023-08-19T13:58:07.850Z,8.00
2023-08-19T14:00:35.545Z,7.20
2023-08-19T14:03:07.500Z,8.00
2023-08-19T14:05:38.894Z,6.40
2023-08-19T14:08:07.015Z,7.90
2023-08-19T14:10:34.478Z,8.10
2023-08-19T14:13:02.218Z,7.10
2023-08-19T14:15:52.854Z,6.10
2023-08-19T14:18:20.389Z,8.20
2023-08-19T14:20:47.767Z,6.20
2023-08-19T14:23:27.776Z,10.20
2023-08-19T14:25:55.180Z,7.60
2023-08-19T14:28:22.691Z,6.20
2023-08-19T14:30:50.305Z,5.80
2023-08-19T14:33:17.697Z,6.40
2023-08-19T14:35:46.576Z,6.00
2023-08-19T14:38:14.474Z,8.80
2023-08-19T14:40:42.440Z,8.00
2023-08-19T14:43:10.201Z,7.70
2023-08-19T14:45:37.821Z,9.00
2023-08-19T14:48:08.507Z,6.10
2023-08-19T14:50:37.216Z,7.40
2023-08-19T14:53:05.464Z,5.70
2023-08-19T14:55:32.950Z,7.50
2023-08-19T14:58:00.476Z,6.10
2023-08-19T15:00:28.050Z,5.70
2023-08-19T15:03:17.528Z,5.70
2023-08-19T15:06:06.061Z,5.90
2023-08-19T15:08:37.131Z,8.90
2023-08-19T15:11:04.546Z,7.60
2023-08-19T15:13:32.020Z,7.50
2023-08-19T15:16:30.602Z,8.90
2023-08-19T15:19:13.488Z,10.50
2023-08-19T15:21:44.050Z,7.30
2023-08-19T15:24:12.029Z,7.40
2023-08-19T15:26:39.485Z,7.00
2023-08-19T15:32:38.537Z,7.50
2023-08-19T15:35:51.633Z,7.70
2023-08-19T15:38:38.959Z,9.50
2023-08-19T15:41:31.515Z,6.80
2023-08-19T15:44:16.777Z,9.50
2023-08-19T15:47:11.091Z,6.00
2023-08-19T15:49:38.641Z,7.60
2023-08-19T15:52:06.292Z,6.80
2023-08-19T15:54:33.660Z,8.00
2023-08-19T15:57:01.204Z,7.60
2023-08-19T15:59:54.464Z,6.90
2023-08-19T16:02:22.132Z,7.60
2023-08-19T16:04:50.112Z,5.90
2023-08-19T16:07:17.656Z,6.70
2023-08-19T16:09:46.876Z,7.50
2023-08-19T16:13:05.911Z,6.10
2023-08-19T16:15:33.489Z,7.90
2023-08-19T16:18:01.206Z,7.40
2023-08-19T16:20:28.912Z,7.40
2023-08-19T16:22:56.473Z,7.60
2023-08-19T16:28:53.343Z,8.30
2023-08-19T16:31:20.847Z,9.50
2023-08-19T16:33:48.366Z,6.70
2023-08-19T16:36:15.918Z,9.20
2023-08-19T16:38:43.580Z,8.00
2023-08-19T16:41:11.037Z,8.50
2023-08-19T16:43:38.600Z,9.30
2023-08-19T16:46:51.876Z,9.30
2023-08-19T16:49:19.539Z,8.90
2023-08-19T16:51:46.976Z,10.10
2023-08-19T16:54:14.343Z,14.10
2023-08-19T16:56:41.793Z,11.30
2023-08-19T16:59:09.248Z,11.40
2023-08-19T17:01:38.530Z,14.00
2023-08-19T17:04:06.659Z,11.50
2023-08-19T17:06:34.407Z,12.70
2023-08-19T17:09:02.468Z,10.60
2023-08-19T17:11:29.876Z,14.30
2023-08-19T17:13:57.626Z,11.50
2023-08-19T17:16:25.160Z,13.40
2023-08-19T17:18:52.879Z,12.20
2023-08-19T17:21:20.542Z,13.80
2023-08-19T17:23:48.000Z,14.20
2023-08-19T17:26:15.457Z,10.50
2023-08-19T17:28:45.167Z,10.30
2023-08-19T17:31:12.756Z,11.50
2023-08-19T17:33:40.201Z,11.80
2023-08-19T17:36:07.953Z,12.30
2023-08-19T17:38:41.363Z,11.10
2023-08-19T17:41:09.312Z,10.00
2023-08-19T17:43:37.359Z,11.60
2023-08-19T17:46:04.854Z,11.50
2023-08-19T17:48:32.614Z,10.70
2023-08-19T17:51:03.083Z,10.40
2023-08-19T17:53:32.793Z,9.20
2023-08-19T17:56:00.526Z,8.80
2023-08-19T17:58:31.038Z,8.60
2023-08-19T18:00:59.458Z,10.00
2023-08-19T18:03:27.283Z,9.40
2023-08-19T18:05:54.894Z,11.00
2023-08-19T18:08:22.338Z,12.20
2023-08-19T18:10:50.894Z,9.00
2023-08-19T18:13:18.240Z,10.20
2023-08-19T18:15:46.131Z,8.40
2023-08-19T18:18:13.780Z,11.20
2023-08-19T18:20:41.285Z,10.30
2023-08-19T18:23:08.695Z,11.20
2023-08-19T18:25:36.460Z,14.50
2023-08-19T18:28:04.529Z,10.40
2023-08-19T18:30:32.086Z,13.00
2023-08-19T18:33:00.405Z,11.60
2023-08-19T18:35:27.969Z,10.60
2023-08-19T18:37:56.200Z,10.80
2023-08-19T18:40:23.806Z,9.90
2023-08-19T18:42:51.330Z,11.00
2023-08-19T18:45:18.811Z,11.30
2023-08-19T18:48:03.858Z,12.20
2023-08-19T18:50:32.392Z,12.30
2023-08-19T18:53:00.237Z,11.50
2023-08-19T18:55:31.887Z,15.90
2023-08-19T18:57:59.359Z,11.00
2023-08-19T19:00:27.053Z,14.90
2023-08-19T19:02:54.692Z,13.30
2023-08-19T19:05:22.555Z,13.40
2023-08-19T19:07:50.268Z,13.10
2023-08-19T19:10:18.491Z,15.60
2023-08-19T19:12:47.843Z,14.90
2023-08-19T19:15:15.374Z,15.70
2023-08-19T19:17:53.194Z,15.90
2023-08-19T19:20:21.361Z,20.10
2023-08-19T19:22:48.859Z,16.10
2023-08-19T19:25:18.046Z,15.30
2023-08-19T19:27:45.527Z,16.00
2023-08-19T19:30:13.114Z,14.90
2023-08-19T19:32:42.122Z,15.40
2023-08-19T19:35:12.518Z,13.60
2023-08-19T19:37:41.103Z,12.80
2023-08-19T19:40:09.029Z,16.30
2023-08-19T19:42:39.744Z,12.00
2023-08-19T19:45:08.390Z,14.70
2023-08-19T19:47:37.007Z,17.00
2023-08-19T19:50:05.927Z,19.60
2023-08-19T19:52:33.414Z,12.70
2023-08-19T19:55:01.388Z,11.20
2023-08-19T19:57:28.960Z,13.50
2023-08-19T19:59:56.519Z,15.10
2023-08-19T20:02:23.973Z,12.40
2023-08-19T20:04:51.567Z,12.60
2023-08-19T20:07:18.916Z,13.20
2023-08-19T20:09:46.411Z,14.30
2023-08-19T20:12:13.805Z,19.70
2023-08-19T20:14:41.543Z,13.60
2023-08-19T20:17:09.090Z,14.00
2023-08-19T20:19:36.562Z,13.80
2023-08-19T20:22:04.378Z,14.30
2023-08-19T20:24:32.082Z,13.90
2023-08-19T20:26:59.750Z,14.30
2023-08-19T20:29:27.356Z,15.80
2023-08-19T20:31:54.879Z,15.10
2023-08-19T20:34:22.629Z,15.70
2023-08-19T20:36:50.017Z,16.10
2023-08-19T20:39:17.651Z,14.00
2023-08-19T20:41:45.217Z,16.00
2023-08-19T20:44:14.112Z,15.90
2023-08-19T20:46:42.288Z,14.40
2023-08-19T20:49:14.058Z,17.80
2023-08-19T20:51:41.796Z,17.90
2023-08-19T20:54:11.193Z,16.30
2023-08-19T20:56:38.788Z,16.50
2023-08-19T20:59:06.313Z,16.50
2023-08-19T21:01:33.997Z,17.00
2023-08-19T21:04:01.649Z,15.00
2023-08-19T21:06:29.258Z,15.10
2023-08-19T21:08:56.966Z,14.30
2023-08-19T21:11:24.629Z,14.30
2023-08-19T21:13:52.127Z,14.30
2023-08-19T21:16:19.790Z,16.40
2023-08-19T21:19:21.767Z,19.00
2023-08-19T21:21:49.593Z,18.40
2023-08-19T21:24:17.065Z,15.90
2023-08-19T21:26:44.484Z,15.40
2023-08-19T21:29:11.984Z,18.90
2023-08-19T21:31:39.626Z,17.00
2023-08-19T21:34:07.281Z,17.50
2023-08-19T21:36:34.738Z,15.50
2023-08-19T21:39:02.202Z,15.80
2023-08-19T21:41:29.759Z,15.20
2023-08-19T21:43:57.316Z,15.10
2023-08-19T21:46:24.708Z,14.80
2023-08-19T21:48:52.395Z,14.20
2023-08-19T21:51:20.861Z,16.10
2023-08-19T21:53:49.035Z,13.40
2023-08-19T21:56:16.558Z,16.00
2023-08-19T21:58:44.218Z,14.00
2023-08-19T22:01:11.759Z,15.20
2023-08-19T22:03:39.237Z,14.80
2023-08-19T22:06:06.820Z,15.30
2023-08-19T22:08:34.355Z,16.10
2023-08-19T22:11:01.810Z,14.70
2023-08-19T22:13:29.380Z,14.30
2023-08-19T22:15:57.044Z,15.80
2023-08-19T22:18:24.710Z,14.80
2023-08-19T22:20:52.199Z,15.70
2023-08-19T22:23:20.094Z,13.90
2023-08-19T22:25:47.583Z,14.90
2023-08-19T22:28:15.145Z,14.40
2023-08-19T22:30:42.753Z,15.50
2023-08-19T22:33:10.365Z,14.80
2023-08-19T22:35:37.997Z,15.00
2023-08-19T22:38:05.588Z,14.30
2023-08-19T22:40:33.360Z,14.20
2023-08-19T22:43:01.138Z,13.90
2023-08-19T22:45:28.638Z,13.70
2023-08-19T22:47:56.017Z,14.80
2023-08-19T22:50:23.580Z,15.50
2023-08-19T22:52:51.158Z,16.10
2023-08-19T22:55:18.583Z,13.50
2023-08-19T22:57:46.481Z,13.30
2023-08-19T23:00:14.380Z,14.90
2023-08-19T23:02:41.841Z,14.40
2023-08-19T23:05:11.923Z,14.90
2023-08-19T23:07:42.087Z,14.80
2023-08-19T23:10:10.840Z,15.80
2023-08-19T23:12:38.394Z,16.00
2023-08-19T23:15:06.829Z,14.50
2023-08-19T23:17:34.481Z,14.60
2023-08-19T23:20:02.738Z,15.20
2023-08-19T23:22:30.473Z,17.30
2023-08-19T23:24:58.651Z,16.00
2023-08-19T23:27:26.413Z,16.80
2023-08-19T23:29:53.777Z,14.80
2023-08-19T23:32:21.333Z,18.20
2023-08-19T23:34:48.890Z,14.90
2023-08-19T23:37:16.281Z,15.70
2023-08-19T23:39:43.713Z,16.50
2023-08-19T23:42:11.363Z,16.00
2023-08-19T23:44:38.854Z,15.00
2023-08-19T23:47:07.304Z,15.20
2023-08-19T23:49:35.290Z,16.50
2023-08-19T23:52:02.838Z,15.70
2023-08-19T23:54:30.892Z,17.90
2023-08-19T23:56:58.766Z,16.00
2023-08-19T23:59:26.790Z,16.30
